Time;durP1;ratioP1;P1;durP2;ratioP2;P2;SDS_P1;SDS_P2;PMS_P1;PMS_P2;Temp;Humidity;BMP_temperature;BMP_pressure;BME280_temperature;BME280_humidity;BME280_pressure;Samples;Min_cycle;Max_cycle;Signal;HPM_P1;HPM_P2
2021/12/22 06:18:38;;;;;;;23.50;10.50;;;;;;;-6.37;100.00;96731.03;20549468;28;20041;-78
2021/12/22 06:28:39;;;;;;;19.13;9.07;;;;;;;-6.10;100.00;96738.31;20543415;28;20043;-82
2021/12/22 06:38:40;;;;;;;26.15;10.77;;;;;;;-6.06;100.00;96742.16;20572119;28;20105;-81
2021/12/22 06:48:40;;;;;;;27.67;10.98;;;;;;;-6.28;100.00;96742.91;20606557;28;20061;-79
2021/12/22 06:58:41;;;;;;;22.92;9.13;;;;;;;-6.79;100.00;96743.22;20599350;28;20417;-79
2021/12/22 07:08:42;;;;;;;24.95;9.93;;;;;;;-7.09;100.00;96735.25;20586687;28;20046;-79
2021/12/22 07:18:42;;;;;;;26.95;10.27;;;;;;;-6.95;100.00;96723.47;20561046;28;20058;-79
2021/12/22 07:28:45;;;;;;;27.70;10.88;;;;;;;-6.20;100.00;96731.78;20574193;28;20691;-81
2021/12/22 07:38:57;;;;;;;21.40;10.23;;;;;;;-5.80;100.00;96722.16;20595569;28;20104;-83
2021/12/22 07:48:57;;;;;;;25.02;10.50;;;;;;;-5.73;100.00;96728.25;20596639;28;20102;-81
2021/12/22 07:58:57;;;;;;;23.15;9.55;;;;;;;-6.13;100.00;96738.66;20614305;28;20474;-81
2021/12/22 08:08:58;;;;;;;29.58;10.30;;;;;;;-6.17;100.00;96736.56;20608795;28;20490;-81
2021/12/22 08:18:58;;;;;;;28.92;11.73;;;;;;;-6.04;100.00;96731.69;20617305;28;20499;-81
2021/12/22 08:28:58;;;;;;;30.30;11.88;;;;;;;-5.65;100.00;96738.50;20612432;28;20104;-81
2021/12/22 08:39:04;;;;;;;30.17;10.98;;;;;;;-5.50;100.00;96739.34;20622884;28;20493;-81
2021/12/22 08:49:06;;;;;;;27.77;13.23;;;;;;;-5.04;100.00;96728.19;20615189;28;20093;-81
2021/12/22 08:59:09;;;;;;;26.52;11.73;;;;;;;-4.70;100.00;96724.28;20621116;28;20042;-81
2021/12/22 09:09:09;;;;;;;23.63;11.38;;;;;;;-4.24;100.00;96711.97;20589672;28;20049;-81
2021/12/22 09:19:10;;;;;;;30.42;12.65;;;;;;;-3.95;100.00;96717.25;20579511;28;20145;-81
2021/12/22 09:29:11;;;;;;;27.83;13.13;;;;;;;-3.59;100.00;96714.66;20609867;28;20097;-81
2021/12/22 09:39:11;;;;;;;27.85;12.10;;;;;;;-3.01;100.00;96714.53;20599875;28;20058;-80
2021/12/22 09:49:36;;;;;;;29.98;13.40;;;;;;;-2.48;100.00;96711.47;20609952;28;20472;-83
2021/12/22 09:59:37;;;;;;;40.00;14.52;;;;;;;-2.04;100.00;96699.88;20609130;28;20033;-81
2021/12/22 10:20:13;;;;;;;30.73;14.25;;;;;;;-1.28;100.00;96691.00;20594453;28;20062;-80
2021/12/22 10:30:26;;;;;;;23.02;9.85;;;;;;;-0.90;100.00;96674.78;20604151;28;20050;-83
2021/12/22 10:51:05;;;;;;;17.90;9.15;;;;;;;-0.19;100.00;96645.34;20598722;28;20192;-82
2021/12/22 11:01:10;;;;;;;16.67;7.53;;;;;;;-0.16;100.00;96636.31;20615739;28;20782;-80
2021/12/22 11:11:13;;;;;;;13.90;7.72;;;;;;;0.43;100.00;96631.72;20596272;28;20046;-84
2021/12/22 11:21:17;;;;;;;14.05;7.05;;;;;;;0.58;100.00;96622.59;20606956;28;20058;-83
2021/12/22 11:31:17;;;;;;;12.05;6.20;;;;;;;0.85;100.00;96600.72;20619599;28;20062;-82
2021/12/22 11:41:20;;;;;;;14.75;7.22;;;;;;;0.88;100.00;96590.66;20614248;28;20046;-80
2021/12/22 11:51:25;;;;;;;14.70;6.97;;;;;;;0.91;100.00;96582.38;20597279;28;20115;-80
2021/12/22 12:01:25;;;;;;;14.82;7.05;;;;;;;1.09;100.00;96568.56;20620025;28;20046;-81
2021/12/22 12:11:38;;;;;;;12.70;7.03;;;;;;;1.26;100.00;96558.31;20586047;28;20048;-83
2021/12/22 12:22:11;;;;;;;15.65;6.53;;;;;;;2.03;100.00;96549.09;20599478;28;20398;-83
2021/12/22 12:32:39;;;;;;;16.67;6.15;;;;;;;2.46;100.00;96535.72;20609108;28;20050;-83
2021/12/22 12:42:58;;;;;;;11.65;5.50;;;;;;;2.64;100.00;96536.66;20604053;28;20042;-82
2021/12/22 12:53:02;;;;;;;13.52;6.22;;;;;;;4.22;100.00;96529.13;20609910;28;20046;-81
2021/12/22 13:03:05;;;;;;;11.95;6.20;;;;;;;4.88;100.00;96507.50;20604547;28;20070;-83
2021/12/22 13:13:17;;;;;;;11.32;5.80;;;;;;;3.82;100.00;96505.66;20586671;28;20407;-82
2021/12/22 13:23:20;;;;;;;12.27;5.43;;;;;;;2.89;100.00;96494.53;20597177;28;20050;-83
2021/12/22 13:33:25;;;;;;;9.88;5.53;;;;;;;3.72;100.00;96484.53;20605373;28;20046;-83
2021/12/22 13:43:30;;;;;;;10.27;5.18;;;;;;;5.08;100.00;96480.72;20598603;28;20127;-85
2021/12/22 13:53:32;;;;;;;13.77;5.25;;;;;;;5.42;100.00;96470.84;20604661;28;20121;-83
2021/12/22 14:03:32;;;;;;;13.25;6.20;;;;;;;3.05;100.00;96472.09;20590815;28;20140;-83
2021/12/22 14:13:32;;;;;;;16.33;7.00;;;;;;;2.65;100.00;96465.78;20569912;28;20038;-84
2021/12/22 14:23:33;;;;;;;11.63;5.97;;;;;;;2.05;100.00;96455.59;20596186;28;20375;-83
2021/12/22 14:33:33;;;;;;;12.45;6.03;;;;;;;1.73;100.00;96451.47;20607961;28;20379;-84
2021/12/22 14:43:40;;;;;;;10.10;5.47;;;;;;;1.21;100.00;96453.84;20605825;28;20709;-83
2021/12/22 14:53:42;;;;;;;12.93;5.87;;;;;;;0.68;100.00;96447.47;20596577;28;20306;-84
2021/12/22 15:03:43;;;;;;;12.90;5.35;;;;;;;0.12;100.00;96432.78;20602764;28;20050;-80
2021/12/22 15:13:44;;;;;;;19.67;8.38;;;;;;;-0.57;100.00;96421.53;20603764;28;20421;-81
2021/12/22 15:23:45;;;;;;;15.27;6.35;;;;;;;-1.12;100.00;96407.28;20603918;28;20050;-80
2021/12/22 15:33:46;;;;;;;13.80;6.15;;;;;;;-1.57;100.00;96402.09;20587753;28;20045;-81
2021/12/22 15:43:46;;;;;;;15.15;6.95;;;;;;;-2.02;100.00;96402.78;20576880;28;20049;-81
2021/12/22 15:53:47;;;;;;;18.85;7.25;;;;;;;-2.30;100.00;96404.81;20581763;28;20039;-81
2021/12/22 16:03:47;;;;;;;17.75;9.05;;;;;;;-2.43;100.00;96401.25;20567159;28;20105;-80
2021/12/22 16:13:47;;;;;;;24.55;11.15;;;;;;;-2.66;100.00;96398.22;20527143;28;20553;-81
2021/12/22 16:23:51;;;;;;;20.85;10.25;;;;;;;-3.20;100.00;96405.13;20599102;28;20137;-80
2021/12/22 16:33:51;;;;;;;24.98;11.85;;;;;;;-3.21;100.00;96429.41;20578857;28;21155;-82
2021/12/22 16:43:52;;;;;;;26.02;11.10;;;;;;;-3.51;100.00;96421.16;20597169;28;20042;-84
2021/12/22 16:53:52;;;;;;;26.50;12.05;;;;;;;-3.79;100.00;96406.47;20574839;28;20051;-80
2021/12/22 17:03:52;;;;;;;25.88;12.73;;;;;;;-3.85;100.00;96402.88;20602770;28;20046;-81
2021/12/22 17:13:53;;;;;;;26.77;12.52;;;;;;;-3.97;100.00;96394.03;20600659;28;20508;-81
2021/12/22 17:23:53;;;;;;;26.38;13.05;;;;;;;-4.13;100.00;96384.78;20596055;28;20515;-80
2021/12/22 17:33:53;;;;;;;23.05;11.55;;;;;;;-4.22;100.00;96390.31;20604414;28;20046;-82
2021/12/22 17:43:54;;;;;;;25.67;11.35;;;;;;;-4.29;100.00;96379.91;20604748;28;20049;-79
2021/12/22 17:53:54;;;;;;;22.60;11.18;;;;;;;-4.51;100.00;96385.16;20590417;28;20046;-79
2021/12/22 18:03:56;;;;;;;26.30;11.15;;;;;;;-4.45;100.00;96388.78;20543708;28;20081;-79
2021/12/22 18:13:57;;;;;;;27.08;12.25;;;;;;;-4.67;100.00;96378.47;20575862;28;20042;-79
2021/12/22 18:23:58;;;;;;;31.90;13.65;;;;;;;-4.71;100.00;96366.91;20560309;28;20047;-81
2021/12/22 18:33:58;;;;;;;36.10;16.85;;;;;;;-4.75;100.00;96355.34;20559203;28;20133;-80
2021/12/22 18:43:58;;;;;;;33.53;16.05;;;;;;;-4.74;100.00;96346.63;20590000;28;20104;-81
2021/12/22 18:53:59;;;;;;;33.10;15.52;;;;;;;-4.84;100.00;96340.97;20551840;28;20070;-80
2021/12/22 19:03:59;;;;;;;33.85;16.17;;;;;;;-4.89;100.00;96351.03;20567664;28;20042;-79
2021/12/22 19:14:00;;;;;;;35.75;14.48;;;;;;;-5.02;100.00;96343.19;20558741;28;20070;-80
2021/12/22 19:24:02;;;;;;;62.33;27.33;;;;;;;-4.92;100.00;96338.53;20561108;28;20046;-81
2021/12/22 19:34:03;;;;;;;38.15;16.35;;;;;;;-4.76;100.00;96332.25;20567151;28;20050;-80
2021/12/22 19:44:03;;;;;;;40.40;17.60;;;;;;;-4.98;100.00;96321.97;20560911;28;20046;-79
2021/12/22 19:54:04;;;;;;;36.30;17.98;;;;;;;-5.00;100.00;96323.16;20559708;28;20407;-80
2021/12/22 20:04:05;;;;;;;39.60;18.67;;;;;;;-4.71;100.00;96335.88;20574686;28;20042;-81
2021/12/22 20:14:07;;;;;;;36.17;16.98;;;;;;;-4.81;100.00;96325.09;20570566;28;20045;-82
2021/12/22 20:24:07;;;;;;;37.47;16.88;;;;;;;-4.80;100.00;96310.38;20566932;28;20054;-80
2021/12/22 20:34:07;;;;;;;41.00;16.88;;;;;;;-4.75;100.00;96303.66;20601380;28;20054;-80
2021/12/22 20:44:08;;;;;;;38.95;17.70;;;;;;;-4.83;100.00;96293.47;20597889;28;20081;-80
2021/12/22 20:54:09;;;;;;;39.92;18.88;;;;;;;-4.79;100.00;96292.09;20593851;28;20042;-78
2021/12/22 21:04:09;;;;;;;43.42;18.17;;;;;;;-4.80;100.00;96271.63;20574042;28;20042;-78
2021/12/22 21:14:14;;;;;;;42.72;19.20;;;;;;;-4.86;100.00;96268.81;20580082;28;20445;-80
2021/12/22 21:24:15;;;;;;;44.03;19.17;;;;;;;-4.95;100.00;96263.97;20561181;28;20081;-80
2021/12/22 21:34:15;;;;;;;42.58;18.35;;;;;;;-5.15;100.00;96251.72;20560010;28;20062;-78
2021/12/22 21:44:16;;;;;;;43.25;21.00;;;;;;;-5.15;100.00;96243.97;20568064;28;20401;-80
2021/12/22 21:54:16;;;;;;;45.60;20.23;;;;;;;-5.14;100.00;96248.16;20549687;28;20062;-80
2021/12/22 22:04:17;;;;;;;48.90;21.50;;;;;;;-5.25;100.00;96233.19;20590553;28;20364;-83
2021/12/22 22:14:18;;;;;;;54.25;25.25;;;;;;;-5.15;100.00;96225.09;20573923;28;20074;-82
2021/12/22 22:24:19;;;;;;;58.67;22.73;;;;;;;-5.12;100.00;96222.94;20574688;28;20050;-79
2021/12/22 22:34:19;;;;;;;46.42;21.42;;;;;;;-5.12;100.00;96191.16;20585663;28;20462;-80
2021/12/22 22:44:22;;;;;;;50.83;21.42;;;;;;;-4.95;100.00;96187.28;20571970;28;20089;-81
2021/12/22 22:54:22;;;;;;;59.03;23.45;;;;;;;-4.93;100.00;96181.94;20593801;28;20412;-81
2021/12/22 23:04:22;;;;;;;54.22;22.65;;;;;;;-4.90;100.00;96166.84;20549152;28;20042;-81
2021/12/22 23:14:23;;;;;;;49.53;21.23;;;;;;;-4.89;100.00;96167.66;20574200;28;20042;-81
2021/12/22 23:24:23;;;;;;;49.85;20.70;;;;;;;-4.76;100.00;96149.63;20563270;28;20505;-81
2021/12/22 23:34:24;;;;;;;44.35;20.63;;;;;;;-4.75;100.00;96133.13;20594939;28;20054;-78
2021/12/22 23:44:58;;;;;;;55.25;22.50;;;;;;;-4.96;100.00;96110.00;20586390;28;20999;-82
2021/12/22 23:54:56;;;;;;;52.47;21.83;;;;;;;-5.14;100.00;96092.44;20601238;28;20448;-80
